createdAt,value
2022-09-02T00:01:46.505Z,18.50
2022-09-02T00:04:20.195Z,17.33
2022-09-02T00:06:51.632Z,17.00
2022-09-02T00:09:27.443Z,18.90
2022-09-02T00:11:58.577Z,18.10
2022-09-02T00:14:32.326Z,20.30
2022-09-02T00:17:01.541Z,18.53
2022-09-02T00:19:32.508Z,19.93
2022-09-02T00:22:03.133Z,20.80
2022-09-02T00:24:33.488Z,21.33
2022-09-02T00:27:02.376Z,19.83
2022-09-02T00:29:30.957Z,20.90
2022-09-02T00:32:00.308Z,20.90
2022-09-02T00:34:33.022Z,22.40
2022-09-02T00:37:01.556Z,21.17
2022-09-02T00:39:30.039Z,21.33
2022-09-02T00:42:01.435Z,20.60
2022-09-02T00:44:29.987Z,20.17
2022-09-02T00:46:58.471Z,20.40
2022-09-02T00:49:30.095Z,21.90
2022-09-02T00:52:05.712Z,24.47
2022-09-02T00:54:41.058Z,21.53
2022-09-02T00:57:26.093Z,19.30
2022-09-02T01:00:03.938Z,16.80
2022-09-02T01:02:33.691Z,22.43
2022-09-02T01:05:03.995Z,18.97
2022-09-02T01:07:36.841Z,17.17
2022-09-02T01:10:09.847Z,16.77
2022-09-02T01:12:40.356Z,13.67
2022-09-02T01:15:12.256Z,12.70
2022-09-02T01:17:48.559Z,12.53
2022-09-02T01:20:22.782Z,11.37
2022-09-02T01:22:57.350Z,10.50
2022-09-02T01:25:30.508Z,9.30
2022-09-02T01:28:02.976Z,9.30
2022-09-02T01:30:42.679Z,9.57
2022-09-02T01:33:12.065Z,11.23
2022-09-02T01:35:40.830Z,10.03
2022-09-02T01:38:11.487Z,11.67
2022-09-02T01:40:40.587Z,12.10
2022-09-02T01:43:13.595Z,12.00
2022-09-02T01:45:46.002Z,10.20
2022-09-02T01:48:21.313Z,9.87
2022-09-02T01:50:54.722Z,8.77
2022-09-02T01:53:25.208Z,10.80
2022-09-02T01:55:53.831Z,9.73
2022-09-02T01:58:22.985Z,11.43
2022-09-02T02:00:51.730Z,9.80
2022-09-02T02:03:22.070Z,9.63
2022-09-02T02:05:50.667Z,10.03
2022-09-02T02:08:19.574Z,11.00
2022-09-02T02:10:50.092Z,10.07
2022-09-02T02:13:18.643Z,9.87
2022-09-02T02:15:47.302Z,10.37
2022-09-02T02:18:15.835Z,12.57
2022-09-02T02:20:44.841Z,9.87
2022-09-02T02:23:13.690Z,10.53
2022-09-02T02:25:42.407Z,11.77
2022-09-02T02:28:12.452Z,9.97
2022-09-02T02:30:40.942Z,10.23
2022-09-02T02:33:09.492Z,10.53
2022-09-02T02:35:38.099Z,8.83
2022-09-02T02:38:07.149Z,9.37
2022-09-02T02:40:36.022Z,9.73
2022-09-02T02:43:04.742Z,9.90
2022-09-02T02:45:34.693Z,11.90
2022-09-02T02:48:04.168Z,11.27
2022-09-02T02:50:32.857Z,9.63
2022-09-02T02:53:02.810Z,10.57
2022-09-02T02:55:31.368Z,9.47
2022-09-02T02:57:59.856Z,11.13
2022-09-02T03:00:39.164Z,10.47
2022-09-02T03:03:12.319Z,11.53
2022-09-02T03:05:41.651Z,11.50
2022-09-02T03:08:11.694Z,9.90
2022-09-02T03:10:43.231Z,9.47
2022-09-02T03:13:15.383Z,9.53
2022-09-02T03:15:45.394Z,10.30
2022-09-02T03:18:14.127Z,11.77
2022-09-02T03:20:43.878Z,9.97
2022-09-02T03:23:13.716Z,11.37
2022-09-02T03:25:45.511Z,11.17
2022-09-02T03:28:35.583Z,11.93
2022-09-02T03:31:05.895Z,10.77
2022-09-02T03:33:34.796Z,10.60
2022-09-02T03:36:03.587Z,10.40
2022-09-02T03:38:32.059Z,10.80
2022-09-02T03:41:00.551Z,10.50
2022-09-02T03:43:29.099Z,11.10
2022-09-02T03:45:57.631Z,10.70
2022-09-02T03:48:29.491Z,10.80
2022-09-02T03:50:58.276Z,11.27
2022-09-02T03:53:27.000Z,9.77
2022-09-02T03:55:56.046Z,10.20
2022-09-02T03:58:24.744Z,11.60
2022-09-02T04:00:54.065Z,10.17
2022-09-02T04:03:23.435Z,10.70
2022-09-02T04:05:53.753Z,10.47
2022-09-02T04:08:23.548Z,13.37
2022-09-02T04:10:52.237Z,10.60
2022-09-02T04:13:21.481Z,10.17
2022-09-02T04:15:50.179Z,9.97
2022-09-02T04:18:19.834Z,10.23
2022-09-02T04:20:48.356Z,11.00
2022-09-02T04:23:18.279Z,9.77
2022-09-02T04:25:46.844Z,10.33
2022-09-02T04:28:15.392Z,9.87
2022-09-02T04:30:44.812Z,8.87
2022-09-02T04:33:13.924Z,10.00
2022-09-02T04:35:48.851Z,9.07
2022-09-02T04:38:19.139Z,8.57
2022-09-02T04:40:49.113Z,9.37
2022-09-02T04:43:18.154Z,7.77
2022-09-02T04:45:47.779Z,8.43
2022-09-02T04:48:16.385Z,8.33
2022-09-02T04:50:45.330Z,7.63
2022-09-02T04:53:14.663Z,7.77
2022-09-02T04:55:44.698Z,7.80
2022-09-02T04:58:13.360Z,9.30
2022-09-02T05:00:43.062Z,7.70
2022-09-02T05:03:11.858Z,7.73
2022-09-02T05:05:40.644Z,7.50
2022-09-02T05:08:10.127Z,8.33
2022-09-02T05:10:41.490Z,8.57
2022-09-02T05:13:11.400Z,8.03
2022-09-02T05:15:42.036Z,8.23
2022-09-02T05:21:17.719Z,7.27
2022-09-02T05:23:46.376Z,7.93
2022-09-02T05:26:15.296Z,8.37
2022-09-02T05:28:45.534Z,7.80
2022-09-02T05:31:17.769Z,7.57
2022-09-02T05:33:48.375Z,6.90
2022-09-02T05:36:20.512Z,5.97
2022-09-02T05:38:50.847Z,6.27
2022-09-02T05:41:24.245Z,8.07
2022-09-02T05:43:56.523Z,7.10
2022-09-02T05:46:28.726Z,7.37
2022-09-02T05:49:07.332Z,7.23
2022-09-02T05:51:42.311Z,6.80
2022-09-02T05:54:13.163Z,7.80
2022-09-02T05:56:45.084Z,9.23
2022-09-02T05:59:15.709Z,8.40
2022-09-02T06:01:44.555Z,7.67
2022-09-02T06:04:13.041Z,10.20
2022-09-02T06:06:42.354Z,11.90
2022-09-02T06:09:15.367Z,16.13
2022-09-02T06:11:46.085Z,11.37
2022-09-02T06:14:19.646Z,10.50
2022-09-02T06:16:50.470Z,11.83
2022-09-02T06:19:20.418Z,12.07
2022-09-02T06:21:50.143Z,11.27
2022-09-02T06:24:18.780Z,11.27
2022-09-02T06:26:47.422Z,13.03
2022-09-02T06:29:17.827Z,10.27
2022-09-02T06:31:48.895Z,13.00
2022-09-02T06:34:20.102Z,14.47
2022-09-02T06:36:51.113Z,13.83
2022-09-02T06:39:25.933Z,12.77
2022-09-02T06:41:54.467Z,13.23
2022-09-02T06:44:24.609Z,12.23
2022-09-02T06:46:59.209Z,13.03
2022-09-02T06:49:29.566Z,11.10
2022-09-02T06:51:59.849Z,13.10
2022-09-02T06:54:54.940Z,14.73
2022-09-02T06:57:24.661Z,22.47
2022-09-02T07:00:06.369Z,12.50
2022-09-02T07:02:34.886Z,16.57
2022-09-02T07:05:15.098Z,15.67
2022-09-02T07:07:48.133Z,13.20
2022-09-02T07:10:17.021Z,14.53
2022-09-02T07:12:45.491Z,17.17
2022-09-02T07:15:15.659Z,14.60
2022-09-02T07:17:44.267Z,12.33
2022-09-02T07:20:14.238Z,13.40
2022-09-02T07:22:42.875Z,14.07
2022-09-02T07:25:11.648Z,14.60
2022-09-02T07:27:40.252Z,14.70
2022-09-02T07:30:11.060Z,13.70
2022-09-02T07:32:41.184Z,16.13
2022-09-02T07:35:10.942Z,17.97
2022-09-02T07:37:39.524Z,15.07
2022-09-02T07:40:11.602Z,16.90
2022-09-02T07:42:40.295Z,15.33
2022-09-02T07:45:10.269Z,14.67
2022-09-02T07:47:40.554Z,13.73
2022-09-02T07:50:19.679Z,15.73
2022-09-02T07:52:50.604Z,18.37
2022-09-02T07:55:19.173Z,15.80
2022-09-02T07:57:56.798Z,16.60
2022-09-02T08:00:27.678Z,17.63
2022-09-02T08:02:58.138Z,18.20
2022-09-02T08:05:27.377Z,17.37
2022-09-02T08:07:56.142Z,18.63
2022-09-02T08:10:27.260Z,16.40
2022-09-02T08:12:56.303Z,14.70
2022-09-02T08:15:28.745Z,14.53
2022-09-02T08:18:01.209Z,17.50
2022-09-02T08:20:30.584Z,18.70
2022-09-02T08:23:10.813Z,15.83
2022-09-02T08:25:42.519Z,14.53
2022-09-02T08:28:11.030Z,14.73
2022-09-02T08:30:40.159Z,11.87
2022-09-02T08:33:10.130Z,16.80
2022-09-02T08:35:39.274Z,15.07
2022-09-02T08:38:07.782Z,17.30
2022-09-02T08:40:41.851Z,16.57
2022-09-02T08:43:31.469Z,13.13
2022-09-02T08:46:05.554Z,18.23
2022-09-02T08:48:41.933Z,14.97
2022-09-02T08:51:16.638Z,17.20
2022-09-02T08:54:20.826Z,17.40
2022-09-02T08:56:51.812Z,14.43
2022-09-02T08:59:25.444Z,15.30
2022-09-02T09:02:16.749Z,19.90
2022-09-02T09:05:15.488Z,20.20
2022-09-02T09:08:04.851Z,15.80
2022-09-02T09:10:46.200Z,16.50
2022-09-02T09:14:01.607Z,14.43
2022-09-02T09:16:41.392Z,14.57
2022-09-02T09:19:15.730Z,12.83
2022-09-02T09:21:46.538Z,12.67
2022-09-02T09:24:33.063Z,15.67
2022-09-02T09:27:03.619Z,13.87
2022-09-02T09:29:36.334Z,18.40
2022-09-02T09:32:14.686Z,12.97
2022-09-02T09:35:07.165Z,12.93
2022-09-02T09:37:41.242Z,16.17
2022-09-02T09:43:16.411Z,15.07
2022-09-02T09:45:47.240Z,14.80
2022-09-02T09:48:31.626Z,13.50
2022-09-02T09:51:15.984Z,16.10
2022-09-02T09:53:46.737Z,15.40
2022-09-02T09:56:32.398Z,13.07
2022-09-02T09:59:10.624Z,14.77
2022-09-02T10:01:39.239Z,14.20
2022-09-02T10:04:42.467Z,16.60
2022-09-02T10:07:00.851Z,16.50
2022-09-02T10:09:37.471Z,11.87
2022-09-02T10:12:08.841Z,12.50
2022-09-02T10:14:41.013Z,13.27
2022-09-02T10:17:33.663Z,13.23
2022-09-02T10:20:11.401Z,13.50
2022-09-02T10:23:06.859Z,17.20
2022-09-02T10:25:52.838Z,12.13
2022-09-02T10:28:43.189Z,11.70
2022-09-02T10:31:21.366Z,10.37
2022-09-02T10:34:12.035Z,14.73
2022-09-02T10:37:06.494Z,14.10
2022-09-02T10:40:08.442Z,14.90
2022-09-02T10:42:49.880Z,13.83
2022-09-02T10:45:32.357Z,14.83
2022-09-02T10:48:22.807Z,14.47
2022-09-02T10:51:02.195Z,15.00
2022-09-02T10:53:53.455Z,14.13
2022-09-02T10:56:26.909Z,12.87
2022-09-02T10:59:05.798Z,14.70
2022-09-02T11:01:45.844Z,17.83
2022-09-02T11:04:25.197Z,16.70
2022-09-02T11:07:03.516Z,14.63
2022-09-02T11:09:37.922Z,14.57
2022-09-02T11:12:16.757Z,11.30
2022-09-02T11:15:03.811Z,15.10
2022-09-02T11:17:42.373Z,12.07
2022-09-02T11:20:20.074Z,12.10
2022-09-02T11:23:24.127Z,11.37
2022-09-02T11:26:01.413Z,14.50
2022-09-02T11:28:43.478Z,11.37
2022-09-02T11:31:23.029Z,11.13
2022-09-02T11:33:59.464Z,14.20
2022-09-02T11:36:33.254Z,14.27
2022-09-02T11:39:09.307Z,10.97
2022-09-02T11:41:58.333Z,11.17
2022-09-02T11:45:10.338Z,11.53
2022-09-02T11:48:25.187Z,11.10
2022-09-02T11:51:27.214Z,11.67
2022-09-02T11:54:00.237Z,12.30
2022-09-02T11:56:40.937Z,12.37
2022-09-02T11:59:20.418Z,12.00
2022-09-02T12:01:53.043Z,13.20
2022-09-02T12:04:58.732Z,12.07
2022-09-02T12:07:33.845Z,12.73
2022-09-02T12:10:06.137Z,11.33
2022-09-02T12:13:09.820Z,12.13
2022-09-02T12:15:40.681Z,11.87
2022-09-02T12:18:27.727Z,12.57
2022-09-02T12:21:18.754Z,12.73
2022-09-02T12:24:22.435Z,13.03
2022-09-02T12:27:27.615Z,12.60
2022-09-02T12:29:58.863Z,13.20
2022-09-02T12:33:13.447Z,13.87
2022-09-02T12:35:58.289Z,15.13
2022-09-02T12:38:34.397Z,12.73
2022-09-02T12:41:30.975Z,12.53
2022-09-02T12:44:27.392Z,13.30
2022-09-02T12:47:09.714Z,13.30
2022-09-02T12:49:50.680Z,12.40
2022-09-02T12:52:44.598Z,13.67
2022-09-02T12:55:23.697Z,15.97
2022-09-02T12:57:55.692Z,16.03
2022-09-02T13:00:36.202Z,14.17
2022-09-02T13:03:39.411Z,13.83
2022-09-02T13:06:22.328Z,13.33
2022-09-02T13:09:37.829Z,15.77
2022-09-02T13:12:57.211Z,14.50
2022-09-02T13:15:45.629Z,14.70
2022-09-02T13:19:08.518Z,13.80
2022-09-02T13:22:03.611Z,13.30
2022-09-02T13:25:07.375Z,13.60
2022-09-02T13:28:23.942Z,13.70
2022-09-02T13:31:20.672Z,14.13
2022-09-02T13:33:58.185Z,12.57
2022-09-02T13:36:32.736Z,12.10
2022-09-02T13:39:15.696Z,16.63
2022-09-02T13:41:44.689Z,14.37
2022-09-02T13:44:22.518Z,12.50
2022-09-02T13:46:54.624Z,15.40
2022-09-02T13:49:27.176Z,13.70
2022-09-02T13:51:57.747Z,15.80
2022-09-02T13:54:35.681Z,17.27
2022-09-02T13:57:09.648Z,17.50
2022-09-02T13:59:47.735Z,20.87
2022-09-02T14:02:27.201Z,19.20
2022-09-02T14:05:01.257Z,19.00
2022-09-02T14:07:36.524Z,21.93
2022-09-02T14:10:10.966Z,20.97
2022-09-02T14:12:41.765Z,24.80
2022-09-02T14:15:16.927Z,20.47
2022-09-02T14:17:45.501Z,22.53
2022-09-02T14:20:23.334Z,23.67
2022-09-02T14:22:57.390Z,21.93
2022-09-02T14:25:29.121Z,19.40
2022-09-02T14:28:02.139Z,19.63
2022-09-02T14:30:59.629Z,18.83
2022-09-02T14:33:41.443Z,20.90
2022-09-02T14:36:14.427Z,24.10
2022-09-02T14:38:55.534Z,20.70
2022-09-02T14:41:26.676Z,18.77
2022-09-02T14:43:59.555Z,19.97
2022-09-02T14:46:33.638Z,17.70
2022-09-02T14:49:06.635Z,18.93
2022-09-02T14:51:44.987Z,16.83
2022-09-02T14:54:34.144Z,17.40
2022-09-02T14:57:04.910Z,18.47
2022-09-02T14:59:33.416Z,17.03
2022-09-02T15:02:03.377Z,18.37
2022-09-02T15:04:35.637Z,15.40
2022-09-02T15:07:04.157Z,14.93
2022-09-02T15:09:33.874Z,14.67
2022-09-02T15:12:03.043Z,14.77
2022-09-02T15:14:31.796Z,14.23
2022-09-02T15:17:03.033Z,14.20
2022-09-02T15:19:33.681Z,15.50
2022-09-02T15:22:03.619Z,17.93
2022-09-02T15:24:32.203Z,15.63
2022-09-02T15:27:00.844Z,14.20
2022-09-02T15:29:32.450Z,15.27
2022-09-02T15:32:05.099Z,13.87
2022-09-02T15:34:34.571Z,14.83
2022-09-02T15:37:03.456Z,13.03
2022-09-02T15:39:32.089Z,11.87
2022-09-02T15:42:00.753Z,13.20
2022-09-02T15:44:31.237Z,10.47
2022-09-02T15:46:59.841Z,8.50
2022-09-02T15:49:30.731Z,7.20
2022-09-02T15:52:01.483Z,7.17
2022-09-02T15:54:31.634Z,7.63
2022-09-02T15:57:01.201Z,6.03
2022-09-02T15:59:29.735Z,5.80
2022-09-02T16:01:59.524Z,5.57
2022-09-02T16:04:30.076Z,5.87
2022-09-02T16:06:59.181Z,5.30
2022-09-02T16:09:27.818Z,6.83
2022-09-02T16:11:57.101Z,5.13
2022-09-02T16:14:26.878Z,4.60
2022-09-02T16:16:57.391Z,5.33
2022-09-02T16:19:30.377Z,5.10
2022-09-02T16:22:00.719Z,4.23
2022-09-02T16:24:29.385Z,3.90
2022-09-02T16:26:57.972Z,4.30
2022-09-02T16:29:28.295Z,4.20
2022-09-02T16:32:14.541Z,3.97
2022-09-02T16:34:46.834Z,4.17
2022-09-02T16:37:17.664Z,4.20
2022-09-02T16:39:46.240Z,4.50
2022-09-02T16:42:14.847Z,5.00
2022-09-02T16:44:43.323Z,5.43
2022-09-02T16:47:11.904Z,6.20
2022-09-02T16:49:42.788Z,7.07
2022-09-02T16:52:11.572Z,5.53
2022-09-02T16:54:41.957Z,5.40
2022-09-02T16:57:11.361Z,6.03
2022-09-02T16:59:39.801Z,6.40
2022-09-02T17:02:08.692Z,5.70
2022-09-02T17:04:37.562Z,6.23
2022-09-02T17:07:06.267Z,6.93
2022-09-02T17:09:34.783Z,6.80
2022-09-02T17:12:05.071Z,7.43
2022-09-02T17:14:33.642Z,6.73
2022-09-02T17:17:02.299Z,7.00
2022-09-02T17:19:32.672Z,7.10
2022-09-02T17:22:01.515Z,8.00
2022-09-02T17:24:30.962Z,7.63
2022-09-02T17:27:00.677Z,8.00
2022-09-02T17:32:20.785Z,7.53
2022-09-02T17:34:51.795Z,8.10
2022-09-02T17:37:22.111Z,8.10
2022-09-02T17:39:51.627Z,8.17
2022-09-02T17:42:21.471Z,8.20
2022-09-02T17:44:51.863Z,7.77
2022-09-02T17:47:24.178Z,8.63
2022-09-02T17:49:53.174Z,8.77
2022-09-02T17:52:24.343Z,8.47
2022-09-02T17:54:55.234Z,9.37
2022-09-02T17:57:42.701Z,8.70
2022-09-02T18:00:17.750Z,8.30
2022-09-02T18:03:16.997Z,9.70
2022-09-02T18:06:05.785Z,9.40
2022-09-02T18:08:45.488Z,10.03
2022-09-02T18:11:14.673Z,8.83
2022-09-02T18:13:56.262Z,9.20
2022-09-02T18:16:33.568Z,9.43
2022-09-02T18:19:19.711Z,8.47
2022-09-02T18:22:08.697Z,8.17
2022-09-02T18:24:59.164Z,9.23
2022-09-02T18:27:44.636Z,9.50
2022-09-02T18:30:28.009Z,8.50
2022-09-02T18:33:35.422Z,8.83
2022-09-02T18:36:21.764Z,8.40
2022-09-02T18:39:06.525Z,9.27
2022-09-02T18:41:51.929Z,8.93
2022-09-02T18:44:36.933Z,9.90
2022-09-02T18:47:11.331Z,9.50
2022-09-02T18:49:43.125Z,8.20
2022-09-02T18:52:12.926Z,8.83
2022-09-02T18:54:48.335Z,8.50
2022-09-02T18:57:17.541Z,10.90
2022-09-02T18:59:55.892Z,10.73
2022-09-02T19:02:33.826Z,8.30
2022-09-02T19:05:07.411Z,10.17
2022-09-02T19:07:55.507Z,9.67
2022-09-02T19:10:24.941Z,7.50
2022-09-02T19:12:54.402Z,8.03
2022-09-02T19:15:23.939Z,8.27
2022-09-02T19:17:52.595Z,7.47
2022-09-02T19:20:23.679Z,7.63
2022-09-02T19:22:57.253Z,8.10
2022-09-02T19:25:31.447Z,8.00
2022-09-02T19:28:06.026Z,7.13
2022-09-02T19:30:37.419Z,7.90
2022-09-02T19:33:13.736Z,9.17
2022-09-02T19:35:50.041Z,7.53
2022-09-02T19:38:18.547Z,7.73
2022-09-02T19:40:49.566Z,7.47
2022-09-02T19:43:18.473Z,9.40
2022-09-02T19:45:51.461Z,8.23
2022-09-02T19:48:20.980Z,9.77
2022-09-02T19:50:51.025Z,8.70
2022-09-02T19:53:25.729Z,7.57
2022-09-02T19:55:54.242Z,8.17
2022-09-02T19:58:23.011Z,9.30
2022-09-02T20:00:54.280Z,7.43
2022-09-02T20:03:22.980Z,10.10
2022-09-02T20:05:53.669Z,9.73
2022-09-02T20:08:24.487Z,9.23
2022-09-02T20:10:57.130Z,7.77
2022-09-02T20:13:26.374Z,8.03
2022-09-02T20:15:56.616Z,7.90
2022-09-02T20:18:27.803Z,8.70
2022-09-02T20:21:00.857Z,10.00
2022-09-02T20:23:33.676Z,9.37
2022-09-02T20:26:29.463Z,12.93
2022-09-02T20:29:28.209Z,7.90
2022-09-02T20:32:12.928Z,10.10
2022-09-02T20:35:02.616Z,6.83
2022-09-02T20:37:50.672Z,6.60
2022-09-02T20:40:35.006Z,7.40
2022-09-02T20:43:28.863Z,7.20
2022-09-02T20:46:05.108Z,7.03
2022-09-02T20:48:53.902Z,8.60
2022-09-02T20:51:30.234Z,7.33
2022-09-02T20:54:22.993Z,7.93
2022-09-02T20:57:06.610Z,7.83
2022-09-02T21:00:03.938Z,8.77
2022-09-02T21:02:39.060Z,6.13
2022-09-02T21:05:22.377Z,7.10
2022-09-02T21:08:03.692Z,6.57
2022-09-02T21:10:39.345Z,6.63
2022-09-02T21:13:16.802Z,7.03
2022-09-02T21:15:51.891Z,8.33
2022-09-02T21:18:36.082Z,7.47
2022-09-02T21:21:11.606Z,9.60
2022-09-02T21:23:49.325Z,6.00
2022-09-02T21:26:25.884Z,7.27
2022-09-02T21:29:04.578Z,6.63
2022-09-02T21:31:39.424Z,7.57
2022-09-02T21:34:20.859Z,7.73
2022-09-02T21:36:51.262Z,5.50
2022-09-02T21:39:20.135Z,8.43
2022-09-02T21:42:04.089Z,7.93
2022-09-02T21:44:48.002Z,6.77
2022-09-02T21:47:24.870Z,5.77
2022-09-02T21:50:11.442Z,6.83
2022-09-02T21:53:01.720Z,5.67
2022-09-02T21:56:00.380Z,5.97
2022-09-02T21:58:50.176Z,7.03
2022-09-02T22:01:44.586Z,8.43
2022-09-02T22:04:39.130Z,7.27
2022-09-02T22:07:21.198Z,6.73
2022-09-02T22:10:03.999Z,7.80
2022-09-02T22:12:41.180Z,9.60
2022-09-02T22:15:28.660Z,6.33
2022-09-02T22:18:11.991Z,10.43
2022-09-02T22:20:44.132Z,7.60
2022-09-02T22:23:25.757Z,6.93
2022-09-02T22:25:56.982Z,6.37
2022-09-02T22:28:36.851Z,6.80
2022-09-02T22:31:16.150Z,6.73
2022-09-02T22:33:55.856Z,9.73
2022-09-02T22:36:39.683Z,8.67
2022-09-02T22:39:08.337Z,6.90
2022-09-02T22:41:53.145Z,8.30
2022-09-02T22:44:54.124Z,9.40
2022-09-02T22:47:43.659Z,9.57
2022-09-02T22:50:38.491Z,8.17
2022-09-02T22:53:07.049Z,9.13
2022-09-02T22:55:59.543Z,7.77
2022-09-02T22:59:08.971Z,6.77
2022-09-02T23:01:53.711Z,6.17
2022-09-02T23:04:54.981Z,7.57
2022-09-02T23:07:25.196Z,6.90
2022-09-02T23:09:59.004Z,7.57
2022-09-02T23:12:41.643Z,7.93
2022-09-02T23:15:29.381Z,8.23
2022-09-02T23:18:07.445Z,7.77
2022-09-02T23:20:48.277Z,9.10
2022-09-02T23:23:39.017Z,8.70
2022-09-02T23:26:33.983Z,7.30
2022-09-02T23:29:18.246Z,9.97
2022-09-02T23:32:20.856Z,9.67
2022-09-02T23:35:21.545Z,8.07
2022-09-02T23:38:32.444Z,7.53
2022-09-02T23:41:10.281Z,7.33
2022-09-02T23:43:41.449Z,7.13
2022-09-02T23:46:27.618Z,7.77
2022-09-02T23:49:12.361Z,6.00
2022-09-02T23:51:56.899Z,5.83
2022-09-02T23:54:50.837Z,7.10
2022-09-02T23:57:45.992Z,6.03
